Time;durP1;ratioP1;P1;durP2;ratioP2;P2;SDS_P1;SDS_P2;PMS_P1;PMS_P2;Temp;Humidity;BMP_temperature;BMP_pressure;BME280_temperature;BME280_humidity;BME280_pressure;Samples;Min_cycle;Max_cycle;Signal;HPM_P1;HPM_P2
2022/05/03 00:00:46;;;;;;;18.70;6.80;;;;;;;9.32;58.88;100249.48;709676;1182;115504;-75
2022/05/03 00:15:51;;;;;;;17.13;6.75;;;;;;;8.80;59.77;100241.54;709419;1182;115223;-76
2022/05/03 00:30:56;;;;;;;12.40;5.80;;;;;;;8.80;59.32;100235.45;709612;1180;114920;-76
2022/05/03 00:46:09;;;;;;;9.95;5.00;;;;;;;8.37;59.29;100242.34;709526;1184;114941;-75
2022/05/03 01:01:19;;;;;;;9.13;4.60;;;;;;;8.13;61.06;100238.09;709476;1180;115548;-76
2022/05/03 01:16:30;;;;;;;19.20;8.10;;;;;;;7.58;61.86;100250.20;709313;1180;114083;-76
2022/05/03 01:31:35;;;;;;;8.65;5.50;;;;;;;7.35;62.50;100246.71;709466;1180;116134;-75
2022/05/03 01:46:39;;;;;;;14.40;6.30;;;;;;;7.22;62.57;100246.79;710296;1180;115561;-75
2022/05/03 02:01:42;;;;;;;9.07;4.77;;;;;;;6.89;63.24;100263.98;710185;1180;114293;-76
2022/05/03 02:17:02;;;;;;;11.60;5.40;;;;;;;6.79;63.98;100251.62;710038;1181;114775;-75
2022/05/03 02:32:12;;;;;;;11.77;4.80;;;;;;;6.76;64.08;100240.59;709574;1183;115139;-74
2022/05/03 02:47:46;;;;;;;6.85;4.35;;;;;;;6.63;63.45;100232.83;709791;1182;115515;-73
2022/05/03 03:03:25;;;;;;;8.45;4.30;;;;;;;6.54;63.62;100236.92;709991;1182;114858;-74
2022/05/03 03:18:33;;;;;;;8.60;4.60;;;;;;;6.38;64.71;100242.40;709913;1184;115909;-77
2022/05/03 03:33:40;;;;;;;10.47;4.80;;;;;;;6.11;64.16;100235.60;709629;1182;115645;-76
2022/05/03 03:48:45;;;;;;;11.90;5.55;;;;;;;6.35;64.45;100236.56;709324;1183;115360;-74
2022/05/03 04:03:49;;;;;;;11.85;5.20;;;;;;;6.62;65.54;100247.62;709345;1183;115638;-75
2022/05/03 04:18:53;;;;;;;10.10;4.15;;;;;;;7.21;65.13;100263.41;709103;1182;114132;-75
2022/05/03 04:33:57;;;;;;;9.23;4.13;;;;;;;7.71;64.45;100261.38;709319;1182;114967;-75
2022/05/03 04:49:00;;;;;;;11.10;4.20;;;;;;;8.31;63.64;100271.56;709811;1184;114797;-75
2022/05/03 05:04:04;;;;;;;8.20;3.90;;;;;;;9.17;64.68;100279.54;709146;1182;115078;-76
2022/05/03 05:19:08;;;;;;;8.85;3.55;;;;;;;10.03;62.99;100274.13;709864;1182;114087;-76
2022/05/03 05:34:12;;;;;;;8.90;5.30;;;;;;;10.74;62.90;100265.37;708894;1183;114630;-76
2022/05/03 05:49:15;;;;;;;9.48;4.48;;;;;;;11.18;62.73;100267.58;709209;1180;115281;-76
2022/05/03 06:04:18;;;;;;;12.50;6.00;;;;;;;11.73;61.98;100276.58;709078;1181;115727;-75
2022/05/03 06:19:23;;;;;;;7.10;4.40;;;;;;;12.55;60.50;100290.79;709449;1180;114502;-75
2022/05/03 06:34:27;;;;;;;8.00;3.95;;;;;;;13.08;59.02;100298.88;709147;1180;114881;-77
2022/05/03 06:49:30;;;;;;;4.95;2.65;;;;;;;13.80;57.86;100293.48;710328;1180;114499;-79
2022/05/03 07:04:34;;;;;;;5.50;3.10;;;;;;;14.45;56.43;100298.23;711955;1180;114303;-80
2022/05/03 07:35:01;;;;;;;4.70;2.20;;;;;;;16.51;53.65;100317.59;713784;1180;114343;-78
2022/05/03 07:50:05;;;;;;;2.40;1.90;;;;;;;17.17;52.63;100320.70;710745;1180;114315;-77
2022/05/03 08:05:10;;;;;;;3.35;1.90;;;;;;;18.10;51.19;100336.41;710216;1180;114412;-77
2022/05/03 08:20:15;;;;;;;;;;;;;;;17.96;49.81;100335.39;710616;1180;115351;-77
2022/05/03 08:35:21;;;;;;;34.95;20.40;;;;;;;18.70;50.15;100341.64;710638;1182;101494;-79
2022/05/03 08:50:26;;;;;;;4.60;3.95;;;;;;;18.78;49.20;100338.89;710516;1180;115164;-80
2022/05/03 09:05:30;;;;;;;2.80;2.35;;;;;;;19.30;48.74;100336.95;710153;1182;115484;-81
2022/05/03 09:36:11;;;;;;;2.95;1.60;;;;;;;21.17;47.07;100333.59;710187;1180;114267;-78
2022/05/03 09:51:41;;;;;;;4.00;1.80;;;;;;;19.65;46.61;100334.38;710744;1180;115900;-78
2022/05/03 10:06:45;;;;;;;1.30;1.20;;;;;;;20.39;46.36;100335.64;712552;1183;114282;-77
2022/05/03 10:21:55;;;;;;;4.00;2.75;;;;;;;20.28;46.82;100344.19;712928;1182;114407;-79
2022/05/03 10:37:00;;;;;;;4.90;1.50;;;;;;;18.94;47.29;100349.30;710692;1180;114836;-78
2022/05/03 10:52:16;;;;;;;4.20;3.00;;;;;;;18.19;48.24;100355.73;711302;1183;116025;-78
2022/05/03 11:07:25;;;;;;;7.25;3.95;;;;;;;17.72;49.52;100369.09;712061;1182;114241;-77
2022/05/03 11:22:35;;;;;;;5.55;3.75;;;;;;;17.64;50.94;100371.83;711873;1180;114500;-77
2022/05/03 11:37:55;;;;;;;10.45;5.55;;;;;;;17.59;51.91;100371.54;712295;1180;114239;-78
2022/05/03 12:08:23;;;;;;;7.50;4.00;;;;;;;18.63;51.61;100357.50;712469;1182;115282;-77
2022/05/03 12:23:31;;;;;;;6.45;3.40;;;;;;;19.40;49.96;100342.78;711585;1184;115365;-76
2022/05/03 12:38:47;;;;;;;2.83;2.30;;;;;;;18.99;49.90;100338.12;711622;1182;114753;-77
2022/05/03 12:53:52;;;;;;;9.70;5.57;;;;;;;18.88;50.61;100334.07;716666;1183;114432;-78
2022/05/03 13:08:56;;;;;;;6.95;2.70;;;;;;;19.32;50.89;100334.95;710941;1183;115338;-79
2022/05/03 13:24:00;;;;;;;5.25;2.85;;;;;;;19.50;50.18;100334.45;710552;1181;114307;-79
2022/05/03 13:54:30;;;;;;;12.20;6.50;;;;;;;18.58;51.84;100350.11;710481;1180;115381;-80
2022/05/03 14:09:34;;;;;;;12.30;7.80;;;;;;;18.25;52.75;100362.95;710232;1182;115291;-80
2022/05/03 14:24:39;;;;;;;17.60;11.90;;;;;;;18.30;53.19;100363.23;710574;1181;115264;-80
2022/05/03 14:39:42;;;;;;;7.00;5.40;;;;;;;18.16;53.72;100377.33;710435;1182;116149;-80
2022/05/03 14:54:48;;;;;;;11.00;6.40;;;;;;;17.80;55.08;100378.81;710354;1181;115922;-80
2022/05/03 15:09:52;;;;;;;10.10;5.20;;;;;;;17.32;57.47;100396.80;710324;1180;114614;-79
2022/05/03 15:24:59;;;;;;;19.60;11.40;;;;;;;17.56;57.99;100390.47;710566;1180;115093;-82
2022/05/03 15:40:06;;;;;;;4.75;3.60;;;;;;;17.40;57.97;100389.59;710567;1182;115663;-80
2022/05/03 15:55:12;;;;;;;26.60;14.60;;;;;;;17.53;58.53;100382.89;711003;1183;114246;-80
2022/05/03 16:10:17;;;;;;;13.30;5.80;;;;;;;17.59;57.73;100382.99;712344;1182;116098;-80
2022/05/03 16:25:21;;;;;;;8.10;4.80;;;;;;;17.54;57.55;100387.16;710664;1184;115382;-74
2022/05/03 16:55:47;;;;;;;19.05;9.45;;;;;;;16.65;58.38;100380.41;710214;1183;114911;-74
2022/05/03 17:10:51;;;;;;;12.20;7.00;;;;;;;16.08;59.93;100395.48;710931;1182;115293;-77
2022/05/03 17:25:56;;;;;;;30.90;10.00;;;;;;;15.76;60.15;100407.74;711232;1183;114581;-74
2022/05/03 17:41:03;;;;;;;13.97;6.43;;;;;;;15.46;61.70;100417.97;710573;1182;116276;-75
2022/05/03 17:56:14;;;;;;;18.50;10.35;;;;;;;15.43;61.86;100423.59;710698;1184;115442;-73
2022/05/03 18:11:19;;;;;;;28.90;16.40;;;;;;;15.03;62.33;100443.67;710178;1183;115844;-75
2022/05/03 18:26:23;;;;;;;19.85;11.35;;;;;;;14.59;63.21;100470.19;710766;1182;115458;-73
2022/05/03 18:41:29;;;;;;;28.95;12.75;;;;;;;14.26;64.85;100480.55;710878;1182;115685;-73
2022/05/03 18:56:34;;;;;;;38.90;17.03;;;;;;;14.23;65.97;100494.06;710339;1183;115585;-73
2022/05/03 19:11:40;;;;;;;21.30;11.70;;;;;;;14.10;67.28;100499.72;710576;1182;116267;-73
2022/05/03 19:42:07;;;;;;;82.40;34.30;;;;;;;13.47;68.10;100526.02;710137;1180;115111;-73
2022/05/03 19:57:11;;;;;;;39.00;19.00;;;;;;;13.27;68.38;100519.16;710578;1180;115542;-73
2022/05/03 20:12:15;;;;;;;72.50;27.60;;;;;;;12.96;68.73;100540.52;709461;1183;117609;-73
2022/05/03 20:27:19;;;;;;;36.05;15.70;;;;;;;12.75;69.07;100546.81;709415;1183;115710;-73
2022/05/03 20:42:24;;;;;;;27.80;11.40;;;;;;;12.41;69.67;100544.66;709026;1182;115902;-73
2022/05/03 20:57:28;;;;;;;19.60;8.30;;;;;;;12.32;70.73;100561.29;709051;1183;116125;-74
2022/05/03 21:12:34;;;;;;;25.05;10.70;;;;;;;12.40;70.24;100577.20;709361;1184;115312;-73
2022/05/03 21:27:38;;;;;;;15.55;8.85;;;;;;;12.30;70.42;100592.19;709248;1181;116162;-73
2022/05/03 21:42:45;;;;;;;12.20;6.65;;;;;;;12.17;70.40;100602.97;709384;1180;115828;-73
2022/05/03 21:57:48;;;;;;;8.60;4.95;;;;;;;12.05;70.81;100619.83;709110;1183;116031;-74
2022/05/03 22:12:55;;;;;;;10.20;5.20;;;;;;;11.96;71.20;100632.02;709112;1184;114416;-74
2022/05/03 22:27:59;;;;;;;8.25;4.35;;;;;;;11.88;71.16;100631.84;709409;1181;116049;-74
2022/05/03 22:43:02;;;;;;;9.27;4.83;;;;;;;11.81;71.17;100663.91;709271;1184;115162;-74
2022/05/03 22:58:06;;;;;;;11.00;4.80;;;;;;;11.71;70.95;100664.85;708996;1182;115376;-74
2022/05/03 23:13:10;;;;;;;5.90;4.00;;;;;;;11.58;70.97;100678.22;709374;1182;115051;-74
2022/05/03 23:28:14;;;;;;;6.55;3.55;;;;;;;11.51;69.62;100684.94;709094;1183;115483;-74
2022/05/03 23:43:17;;;;;;;5.80;2.80;;;;;;;11.24;68.05;100678.46;709269;1184;114155;-74
2022/05/03 23:58:21;;;;;;;7.10;3.30;;;;;;;11.26;66.76;100687.05;709154;1182;114888;-73
